KCNW/CNW METAR and TAF weather

Enter ICAO airport designator
Station Type Date Time Source
KCNW METAR 2021/07/24 20:55 UTC NOAA

KCNW 242055Z 20010KT 10SM SKC 35/18 A3000


Station Type Date Time Source
KCNW Decoded METAR 2021/07/24 20:55 UTC NOAA

Station name not available
Jul 24, 2021 - 04:55 PM EDT / 2021.07.24 2055 UTC
Wind: from the SSW (200 degrees) at 12 MPH (10 KT):0
Visibility: 10 mile(s):0
Sky conditions: clear
Temperature: 95 F (35 C)
Heat index: 97.0 F (36.1 C):1
Dew Point: 64 F (18 C)
Relative Humidity: 36%
Pressure (altimeter): 30 in. Hg (1015 hPa)
ob: KCNW 242055Z 20010KT 10SM SKC 35/18 A3000
cycle: 21

Station Type Date Time Source
KCNW TAF UTC NOAA

Error!

Example: see airport list